Time;durP1;ratioP1;P1;durP2;ratioP2;P2;SDS_P1;SDS_P2;PMS_P1;PMS_P2;Temp;Humidity;BMP_temperature;BMP_pressure;BME280_temperature;BME280_humidity;BME280_pressure;Samples;Min_cycle;Max_cycle;Signal;HPM_P1;HPM_P2
2023/06/28 00:00:14;;;;;;;2.78;0.60;;;;;;;;;;20884062;28;20631;-74
2023/06/28 00:10:19;;;;;;;2.85;0.70;;;;;;;;;;20890304;28;20273;-75
2023/06/28 00:20:20;;;;;;;0.55;0.38;;;;;;;;;;20911764;28;20223;-77
2023/06/28 00:30:22;;;;;;;3.25;0.50;;;;;;;;;;20927980;28;20279;-77
2023/06/28 00:40:25;;;;;;;1.05;0.50;;;;;;;;;;20882141;28;20601;-73
2023/06/28 00:50:27;;;;;;;1.27;0.57;;;;;;;;;;20915061;28;20277;-74
2023/06/28 01:00:29;;;;;;;1.13;0.50;;;;;;;;;;20879782;28;20273;-74
2023/06/28 01:10:31;;;;;;;1.27;0.65;;;;;;;;;;20879229;28;20222;-73
2023/06/28 01:20:34;;;;;;;2.28;0.50;;;;;;;;;;20894693;28;20225;-73
2023/06/28 01:30:37;;;;;;;3.72;0.88;;;;;;;;;;20894613;28;20247;-73
2023/06/28 01:40:39;;;;;;;1.55;0.60;;;;;;;;;;20875723;28;20345;-77
2023/06/28 01:50:41;;;;;;;0.82;0.55;;;;;;;;;;20908704;23;20231;-75
2023/06/28 02:00:42;;;;;;;1.13;0.40;;;;;;;;;;20845950;28;20269;-75
2023/06/28 02:10:44;;;;;;;1.65;0.60;;;;;;;;;;20874865;28;20243;-75
2023/06/28 02:20:46;;;;;;;1.55;0.60;;;;;;;;;;20890296;28;20212;-75
2023/06/28 02:30:48;;;;;;;1.02;0.50;;;;;;;;;;20889894;28;20275;-75
2023/06/28 02:40:49;;;;;;;1.63;0.60;;;;;;;;;;20813062;28;20638;-75
2023/06/28 02:50:51;;;;;;;1.80;0.63;;;;;;;;;;20806301;28;20227;-75
2023/06/28 03:00:53;;;;;;;0.75;0.47;;;;;;;;;;20804831;28;20243;-75
2023/06/28 03:10:55;;;;;;;1.25;0.63;;;;;;;;;;20822245;28;20507;-75
2023/06/28 03:20:57;;;;;;;2.80;0.60;;;;;;;;;;20803554;28;20214;-75
2023/06/28 03:30:58;;;;;;;1.02;0.60;;;;;;;;;;20816975;28;20225;-75
2023/06/28 03:41:00;;;;;;;1.13;0.70;;;;;;;;;;20826667;28;20245;-74
2023/06/28 03:51:02;;;;;;;2.17;0.80;;;;;;;;;;20818665;28;20216;-75
2023/06/28 04:01:04;;;;;;;3.33;0.77;;;;;;;;;;20818352;28;20218;-75
2023/06/28 04:11:05;;;;;;;1.52;0.57;;;;;;;;;;20800265;28;20654;-75
2023/06/28 04:21:07;;;;;;;2.25;0.60;;;;;;;;;;20818000;28;20755;-77
2023/06/28 04:31:09;;;;;;;2.38;0.80;;;;;;;;;;20830551;28;20218;-74
2023/06/28 04:41:10;;;;;;;1.73;0.75;;;;;;;;;;20807670;28;20226;-75
2023/06/28 04:51:12;;;;;;;1.95;0.60;;;;;;;;;;20816223;28;20271;-75
2023/06/28 05:01:14;;;;;;;2.10;0.50;;;;;;;;;;20799279;28;20227;-75
2023/06/28 05:11:15;;;;;;;2.23;0.70;;;;;;;;;;20829207;28;20223;-74
2023/06/28 05:21:17;;;;;;;1.42;0.68;;;;;;;;;;20829934;28;20239;-74
2023/06/28 05:31:19;;;;;;;1.10;0.50;;;;;;;;;;20843312;28;20252;-74
2023/06/28 05:41:20;;;;;;;1.10;0.57;;;;;;;;;;20819470;28;20608;-74
2023/06/28 05:51:22;;;;;;;0.98;0.60;;;;;;;;;;20828298;28;20228;-74
2023/06/28 06:01:24;;;;;;;1.70;0.90;;;;;;;;;;20827153;28;20215;-74
2023/06/28 06:11:26;;;;;;;1.38;0.60;;;;;;;;;;20826414;28;20571;-74
2023/06/28 06:21:28;;;;;;;2.00;0.83;;;;;;;;;;20824605;28;20225;-74
2023/06/28 06:31:30;;;;;;;3.40;0.70;;;;;;;;;;20838003;28;20226;-75
2023/06/28 06:41:31;;;;;;;0.63;0.43;;;;;;;;;;20867080;28;20218;-75
2023/06/28 06:51:33;;;;;;;0.75;0.40;;;;;;;;;;20907663;28;20730;-75
2023/06/28 07:01:35;;;;;;;2.33;0.70;;;;;;;;;;20906721;28;20247;-75
2023/06/28 07:11:36;;;;;;;2.57;0.60;;;;;;;;;;20904777;28;20267;-76
2023/06/28 07:21:38;;;;;;;0.70;0.50;;;;;;;;;;20886221;28;20390;-76
2023/06/28 07:31:40;;;;;;;0.98;0.50;;;;;;;;;;20895687;28;20230;-75
2023/06/28 07:41:42;;;;;;;1.08;0.52;;;;;;;;;;20809756;28;20224;-75
2023/06/28 07:51:43;;;;;;;0.85;0.47;;;;;;;;;;20819591;28;20215;-75
2023/06/28 08:01:45;;;;;;;3.28;0.95;;;;;;;;;;20933910;23;20297;-68
2023/06/28 08:11:47;;;;;;;1.75;0.70;;;;;;;;;;20851644;28;20290;-69
2023/06/28 08:21:50;;;;;;;1.58;0.68;;;;;;;;;;20851471;28;20218;-68
2023/06/28 08:31:51;;;;;;;1.88;0.80;;;;;;;;;;20841969;28;20222;-68
2023/06/28 08:41:53;;;;;;;1.83;0.70;;;;;;;;;;20825098;28;20226;-69
2023/06/28 08:51:56;;;;;;;1.25;0.52;;;24.20;96.50;;;;;;20863220;28;20283;-68
2023/06/28 09:01:59;;;;;;;1.63;0.90;;;24.30;95.90;;;;;;20880243;28;20233;-68
2023/06/28 09:12:02;;;;;;;1.65;0.77;;;;;;;;;;20856508;28;20274;-69
2023/06/28 09:22:04;;;;;;;3.53;1.00;;;;;;;;;;20878550;28;20276;-68
2023/06/28 09:32:06;;;;;;;3.00;0.70;;;;;;;;;;20850413;28;20564;-68
2023/06/28 09:42:08;;;;;;;2.78;0.85;;;;;;;;;;20826861;28;20242;-69
2023/06/28 09:52:10;;;;;;;0.60;0.50;;;;;;;;;;20875902;28;20282;-68
2023/06/28 10:02:16;;;;;;;6.18;0.93;;;24.90;90.90;;;;;;20859051;28;20271;-69
2023/06/28 10:12:20;;;;;;;3.13;0.60;;;;;;;;;;20852233;28;20268;-68
2023/06/28 10:22:23;;;;;;;1.63;0.73;;;;;;;;;;20873712;28;20230;-69
2023/06/28 10:32:25;;;;;;;1.70;0.65;;;;;;;;;;20837284;28;20220;-69
2023/06/28 10:42:38;;;;;;;1.38;0.80;;;;;;;;;;20816958;28;20206;-69
2023/06/28 10:52:47;;;;;;;2.42;0.60;;;26.00;90.30;;;;;;20849119;28;20660;-69
2023/06/28 11:02:53;;;;;;;1.08;0.60;;;25.90;83.40;;;;;;20841696;28;20297;-69
2023/06/28 11:13:02;;;;;;;0.88;0.60;;;;;;;;;;20842195;28;20351;-69
2023/06/28 11:23:04;;;;;;;1.20;0.60;;;;;;;;;;20848477;28;20274;-68
2023/06/28 11:33:07;;;;;;;3.55;0.70;;;;;;;;;;20869659;28;20275;-70
2023/06/28 11:43:08;;;;;;;0.82;0.40;;;;;;;;;;20842944;28;20224;-70
2023/06/28 11:53:10;;;;;;;0.80;0.60;;;;;;;;;;20860821;28;20788;-69
2023/06/28 12:03:12;;;;;;;2.47;0.80;;;;;;;;;;20850826;28;20224;-70
2023/06/28 12:13:21;;;;;;;0.70;0.50;;;;;;;;;;20826758;28;20598;-70
2023/06/28 12:23:23;;;;;;;1.10;0.50;;;;;;;;;;20838501;28;20572;-70
2023/06/28 12:33:25;;;;;;;1.98;0.70;;;;;;;;;;20839156;28;20224;-70
2023/06/28 12:43:27;;;;;;;0.68;0.43;;;;;;;;;;20840941;28;20575;-69
2023/06/28 12:53:29;;;;;;;1.73;0.70;;;;;;;;;;20849394;28;20220;-70
2023/06/28 13:03:31;;;;;;;1.27;0.60;;;;;;;;;;20865319;28;20705;-69
2023/06/28 13:13:33;;;;;;;0.90;0.40;;;;;;;;;;20848977;28;20277;-70
2023/06/28 13:23:34;;;;;;;1.35;0.50;;;;;;;;;;20857684;28;20224;-69
2023/06/28 13:33:36;;;;;;;0.63;0.40;;;;;;;;;;20837563;28;20293;-69
2023/06/28 13:43:38;;;;;;;2.45;0.50;;;;;;;;;;20819932;28;20216;-70
2023/06/28 13:53:40;;;;;;;0.98;0.43;;;;;;;;;;20824516;28;20230;-69
2023/06/28 14:03:42;;;;;;;1.27;0.50;;;;;;;;;;20819128;23;20222;-69
2023/06/28 14:13:44;;;;;;;2.20;0.50;;;;;;;;;;20793428;28;20288;-69
2023/06/28 14:23:46;;;;;;;1.83;0.50;;;;;;;;;;20760014;28;20229;-69
2023/06/28 14:33:48;;;;;;;1.83;0.50;;;;;;;;;;20807870;28;20226;-70
2023/06/28 14:43:50;;;;;;;0.82;0.50;;;;;;;;;;20790047;28;20232;-69
2023/06/28 14:53:52;;;;;;;1.05;0.50;;;;;;;;;;20781663;28;20216;-69
2023/06/28 15:03:54;;;;;;;0.95;0.40;;;;;;;;;;20797234;28;20220;-69
2023/06/28 15:13:55;;;;;;;1.30;0.50;;;;;;;;;;20772805;28;20226;-69
2023/06/28 15:23:57;;;;;;;1.23;0.43;;;;;;;;;;20787626;28;20270;-69
2023/06/28 15:33:59;;;;;;;2.00;0.93;;;;;;;;;;20778513;28;20220;-68
2023/06/28 15:44:01;;;;;;;1.20;0.60;;;;;;;;;;20750810;28;20608;-70
2023/06/28 15:54:03;;;;;;;1.48;0.73;;;;;;;;;;20775195;28;20235;-69
2023/06/28 16:04:05;;;;;;;1.05;0.55;;;;;;;;;;20801573;28;20605;-69
2023/06/28 16:14:08;;;;;;;2.20;0.55;;;;;;;;;;20768981;28;20284;-69
2023/06/28 16:24:09;;;;;;;2.30;0.55;;;;;;;;;;20756285;28;20255;-70
2023/06/28 16:34:11;;;;;;;1.65;0.70;;;;;;;;;;20780235;28;20590;-70
2023/06/28 16:44:13;;;;;;;2.28;0.60;;;;;;;;;;20768252;28;20225;-70
2023/06/28 16:54:15;;;;;;;2.17;0.63;;;;;;;;;;20768592;28;20218;-70
2023/06/28 17:04:17;;;;;;;1.38;0.45;;;;;;;;;;20811157;28;20315;-70
2023/06/28 17:14:19;;;;;;;1.90;0.60;;;;;;;;;;20783230;28;20221;-70
2023/06/28 17:24:21;;;;;;;1.35;0.43;;;;;;;;;;20790796;28;21040;-70
2023/06/28 17:34:22;;;;;;;1.00;0.43;;;;;;;;;;20797433;28;20218;-72
2023/06/28 17:44:24;;;;;;;0.68;0.40;;;;;;;;;;20773379;28;20283;-70
2023/06/28 17:54:26;;;;;;;1.00;0.50;;;;;;;;;;20779163;28;20213;-70
2023/06/28 18:04:28;;;;;;;0.82;0.50;;;;;;;;;;20795134;28;20764;-70
2023/06/28 18:14:30;;;;;;;1.05;0.40;;;;;;;;;;20793623;28;20209;-70
2023/06/28 18:24:32;;;;;;;0.98;0.50;;;;;;;;;;20777166;28;20590;-69
2023/06/28 18:34:34;;;;;;;1.95;0.60;;;;;;;;;;20767211;28;20223;-70
2023/06/28 18:44:36;;;;;;;1.65;0.60;;;;;;;;;;20791718;28;20221;-72
2023/06/28 18:54:38;;;;;;;1.42;0.73;;;;;;;;;;20775391;28;20283;-70
2023/06/28 19:04:41;;;;;;;1.00;0.60;;;;;;;;;;20774027;28;20594;-70
2023/06/28 19:14:43;;;;;;;1.08;0.52;;;;;;;;;;20789740;28;20284;-70
2023/06/28 19:24:47;;;;;;;1.02;0.50;;;;;;;;;;20800278;28;20954;-70
2023/06/28 19:34:49;;;;;;;4.78;0.55;;;;;;;;;;20787877;28;20224;-72
2023/06/28 19:44:51;;;;;;;2.30;0.60;;;;;;;;;;20767590;28;20252;-72
2023/06/28 19:54:54;;;;;;;1.17;0.50;;;;;;;;;;20786304;28;20222;-72
2023/06/28 20:04:56;;;;;;;1.10;0.60;;;;;;;;;;20797563;23;20282;-69
2023/06/28 20:15:03;;;;;;;2.47;0.70;;;;;;;;;;20768366;28;20216;-69
2023/06/28 20:25:06;;;;;;;2.85;0.80;;;;;;;;;;20783961;28;20225;-69
2023/06/28 20:35:08;;;;;;;1.95;0.50;;;;;;;;;;20788425;28;20233;-69
2023/06/28 20:45:11;;;;;;;3.03;0.80;;;;;;;;;;20815877;28;20224;-69
2023/06/28 20:55:13;;;;;;;2.92;0.73;;;;;;;;;;20810833;28;20209;-69
2023/06/28 21:05:15;;;;;;;4.15;0.90;;;25.00;94.20;;;;;;20781942;28;20255;-68
2023/06/28 21:15:17;;;;;;;6.72;1.42;;;;;;;;;;20800677;28;20705;-69
2023/06/28 21:25:19;;;;;;;2.53;0.90;;;;;;;;;;20796627;28;20250;-69
2023/06/28 21:35:24;;;;;;;3.85;0.73;;;;;;;;;;20763183;28;20230;-69
2023/06/28 21:45:26;;;;;;;1.95;0.50;;;;;;;;;;20794260;28;20236;-68
2023/06/28 21:55:29;;;;;;;3.13;0.60;;;;;;;;;;20794521;28;20235;-69
2023/06/28 22:05:30;;;;;;;2.05;0.60;;;;;;;;;;20777419;28;20679;-69
2023/06/28 22:15:34;;;;;;;4.60;0.80;;;;;;;;;;20787325;28;20283;-68
2023/06/28 22:25:36;;;;;;;1.38;0.68;;;;;;;;;;20772232;28;20724;-68
2023/06/28 22:35:38;;;;;;;2.30;0.80;;;;;;;;;;20771447;28;20216;-69
2023/06/28 22:45:40;;;;;;;2.50;0.63;;;;;;;;;;20789305;28;20318;-69
2023/06/28 22:55:45;;;;;;;1.20;0.57;;;;;;;;;;20760572;28;20439;-69
2023/06/28 23:05:47;;;;;;;1.85;0.75;;;23.60;99.90;;;;;;20788326;28;20223;-69
2023/06/28 23:15:50;;;;;;;1.20;0.63;;;;;;;;;;20803912;28;20279;-69
2023/06/28 23:25:52;;;;;;;2.80;0.63;;;;;;;;;;20803849;28;20261;-69
2023/06/28 23:35:54;;;;;;;1.25;0.65;;;;;;;;;;20778198;28;20772;-69
2023/06/28 23:45:56;;;;;;;0.95;0.50;;;;;;;;;;20758897;28;20677;-69
2023/06/28 23:56:06;;;;;;;0.88;0.50;;;;;;;;;;20787149;28;20217;-68
